Terminal Aerodrome Forecast
Issued by NWS Wilmington, OH

Current Version | Previous Version | Graphics & Text | Print | Product List | Glossary On
Versions: 1 2 3 4 5 6 7 8 9 10 11 12 13 14 15 16 17 18 19 20 21 22 23 24 25 26
000
FTUS41 KILN 281300 AAA
TAFCVG
TAF AMD
KCVG 281329Z 2813/2918 21012G20KT P6SM VCSH BKN050 OVC250
     FM281600 23012KT 5SM -SHRA BR SCT025 OVC040
     FM281800 24011KT P6SM BKN080
     FM282000 27009KT P6SM SCT100 BKN200
     FM290300 29007KT P6SM SCT200
     FM291500 28010KT P6SM SCT035=

USA.gov is the U.S. government's official web portal to all federal, state and local government web resources and services.